createdAt,value
2023-02-22T00:00:59.989Z,84.43
2023-02-22T00:03:32.388Z,88.45
2023-02-22T00:06:05.241Z,86.93
2023-02-22T00:08:35.647Z,73.78
2023-02-22T00:11:10.882Z,62.72
2023-02-22T00:13:39.177Z,63.47
2023-02-22T00:16:07.119Z,62.97
2023-02-22T00:18:34.430Z,72.88
2023-02-22T00:21:02.154Z,89.15
2023-02-22T00:23:30.855Z,83.25
2023-02-22T00:26:00.264Z,79.53
2023-02-22T00:28:27.979Z,86.68
2023-02-22T00:30:55.802Z,92.35
2023-02-22T00:33:23.623Z,94.03
2023-02-22T00:35:50.982Z,89.13
2023-02-22T00:38:19.688Z,90.85
2023-02-22T00:40:47.101Z,75.15
2023-02-22T00:43:15.026Z,73.70
2023-02-22T00:45:42.810Z,95.32
2023-02-22T00:48:10.590Z,101.60
2023-02-22T00:50:38.063Z,105.97
2023-02-22T00:53:05.731Z,103.10
2023-02-22T00:55:35.997Z,108.82
2023-02-22T00:58:04.869Z,101.35
2023-02-22T01:00:40.512Z,101.40
2023-02-22T01:03:10.625Z,106.63
2023-02-22T01:05:38.380Z,88.35
2023-02-22T01:08:07.645Z,63.63
2023-02-22T01:10:35.644Z,66.40
2023-02-22T01:13:09.410Z,68.75
2023-02-22T01:15:39.809Z,63.58
2023-02-22T01:18:07.485Z,70.22
2023-02-22T01:20:35.129Z,61.70
2023-02-22T01:23:06.721Z,61.42
2023-02-22T01:25:35.284Z,57.40
2023-02-22T01:28:03.898Z,59.40
2023-02-22T01:30:33.646Z,61.85
2023-02-22T01:33:03.596Z,61.08
2023-02-22T01:35:33.292Z,62.85
2023-02-22T01:38:01.077Z,57.95
2023-02-22T01:40:39.103Z,59.65
2023-02-22T01:43:25.671Z,54.95
2023-02-22T01:46:03.723Z,53.03
2023-02-22T01:48:40.041Z,60.70
2023-02-22T01:51:20.878Z,67.70
2023-02-22T01:54:23.663Z,74.72
2023-02-22T01:57:23.272Z,74.03
2023-02-22T01:59:56.737Z,88.13
2023-02-22T02:02:25.338Z,93.22
2023-02-22T02:04:56.553Z,98.25
2023-02-22T02:07:24.783Z,101.63
2023-02-22T02:10:02.005Z,87.05
2023-02-22T02:12:38.612Z,100.43
2023-02-22T02:15:26.107Z,117.18
2023-02-22T02:18:02.495Z,105.47
2023-02-22T02:20:41.891Z,87.03
2023-02-22T02:23:20.572Z,93.55
2023-02-22T02:25:54.657Z,97.47
2023-02-22T02:28:43.283Z,69.20
2023-02-22T02:31:48.078Z,81.72
2023-02-22T02:34:27.265Z,58.43
2023-02-22T02:37:07.540Z,82.50
2023-02-22T02:39:59.277Z,85.10
2023-02-22T02:42:38.319Z,83.70
2023-02-22T02:45:11.136Z,74.10
2023-02-22T02:47:43.820Z,76.72
2023-02-22T02:50:34.009Z,81.75
2023-02-22T02:53:07.013Z,86.88
2023-02-22T02:55:36.922Z,60.40
2023-02-22T02:58:08.404Z,73.18
2023-02-22T03:00:42.147Z,70.88
2023-02-22T03:03:15.321Z,80.43
2023-02-22T03:06:22.670Z,81.85
2023-02-22T03:09:13.735Z,80.50
2023-02-22T03:12:18.659Z,74.38
2023-02-22T03:15:08.013Z,57.88
2023-02-22T03:17:45.415Z,76.03
2023-02-22T03:20:12.627Z,76.60
2023-02-22T03:23:06.546Z,74.72
2023-02-22T03:25:50.151Z,78.68
2023-02-22T03:28:21.540Z,73.50
2023-02-22T03:31:02.153Z,95.65
2023-02-22T03:33:34.019Z,90.55
2023-02-22T03:36:22.269Z,96.50
2023-02-22T03:38:51.424Z,91.55
2023-02-22T03:41:25.179Z,98.30
2023-02-22T03:44:08.664Z,87.28
2023-02-22T03:46:40.792Z,72.57
2023-02-22T03:49:20.332Z,75.82
2023-02-22T03:51:48.424Z,72.03
2023-02-22T03:54:16.690Z,74.20
2023-02-22T03:57:16.592Z,69.35
2023-02-22T03:59:45.969Z,74.95
2023-02-22T04:02:13.250Z,77.07
2023-02-22T04:04:40.720Z,83.97
2023-02-22T04:07:08.994Z,85.00
2023-02-22T04:09:37.238Z,85.25
2023-02-22T04:12:05.113Z,85.85
2023-02-22T04:14:42.450Z,76.85
2023-02-22T04:17:10.363Z,73.13
2023-02-22T04:19:37.644Z,61.17
2023-02-22T04:22:05.386Z,68.15
2023-02-22T04:24:34.764Z,72.55
2023-02-22T04:27:02.005Z,73.00
2023-02-22T04:29:30.113Z,69.88
2023-02-22T04:31:57.558Z,77.03
2023-02-22T04:34:24.854Z,70.03
2023-02-22T04:36:52.543Z,66.88
2023-02-22T04:39:20.573Z,68.78
2023-02-22T04:41:47.829Z,77.38
2023-02-22T04:44:15.473Z,72.30
2023-02-22T04:46:42.942Z,67.38
2023-02-22T04:49:13.469Z,68.93
2023-02-22T04:51:42.672Z,66.18
2023-02-22T04:54:13.779Z,60.47
2023-02-22T04:56:46.552Z,61.17
2023-02-22T04:59:13.884Z,65.13
2023-02-22T05:01:44.869Z,64.65
2023-02-22T05:04:12.260Z,58.97
2023-02-22T05:06:39.386Z,64.25
2023-02-22T05:09:06.737Z,61.05
2023-02-22T05:11:34.062Z,63.00
2023-02-22T05:14:01.403Z,56.97
2023-02-22T05:16:28.592Z,61.22
2023-02-22T05:18:55.858Z,56.95
2023-02-22T05:21:23.713Z,52.13
2023-02-22T05:23:50.902Z,52.78
2023-02-22T05:26:19.123Z,52.40
2023-02-22T05:28:46.465Z,59.00
2023-02-22T05:31:14.097Z,51.90
2023-02-22T05:33:41.604Z,55.97
2023-02-22T05:36:09.730Z,54.97
2023-02-22T05:38:43.386Z,64.00
2023-02-22T05:41:13.216Z,58.00
2023-02-22T05:43:41.398Z,60.85
2023-02-22T05:46:08.676Z,55.33
2023-02-22T05:48:36.666Z,64.60
2023-02-22T05:51:05.084Z,54.78
2023-02-22T05:53:38.201Z,62.35
2023-02-22T05:56:07.240Z,60.78
2023-02-22T05:58:34.475Z,58.40
2023-02-22T06:01:03.331Z,48.38
2023-02-22T06:03:30.736Z,49.53
2023-02-22T06:05:58.224Z,45.38
2023-02-22T06:08:25.385Z,53.17
2023-02-22T06:10:52.631Z,55.70
2023-02-22T06:13:19.872Z,45.30
2023-02-22T06:15:47.226Z,48.60
2023-02-22T06:18:14.389Z,51.28
2023-02-22T06:20:41.611Z,50.05
2023-02-22T06:23:09.065Z,44.67
2023-02-22T06:25:36.723Z,46.63
2023-02-22T06:28:04.361Z,54.40
2023-02-22T06:30:33.511Z,47.70
2023-02-22T06:33:02.686Z,55.65
2023-02-22T06:35:42.720Z,55.75
2023-02-22T06:38:12.812Z,59.90
2023-02-22T06:40:40.629Z,61.45
2023-02-22T06:43:11.144Z,65.47
2023-02-22T06:45:38.585Z,67.80
2023-02-22T06:48:05.921Z,68.57
2023-02-22T06:50:35.845Z,57.50
2023-02-22T06:53:03.801Z,66.55
2023-02-22T06:55:33.026Z,74.22
2023-02-22T06:58:01.743Z,65.80
2023-02-22T07:00:30.546Z,68.05
2023-02-22T07:02:58.368Z,62.40
2023-02-22T07:05:27.061Z,61.60
2023-02-22T07:08:01.231Z,68.55
2023-02-22T07:10:31.461Z,75.78
2023-02-22T07:12:58.704Z,70.47
2023-02-22T07:15:28.033Z,68.80
2023-02-22T07:17:55.966Z,68.47
2023-02-22T07:20:24.727Z,72.85
2023-02-22T07:22:52.709Z,70.60
2023-02-22T07:25:20.378Z,69.75
2023-02-22T07:27:48.109Z,74.90
2023-02-22T07:30:21.179Z,64.82
2023-02-22T07:33:01.313Z,63.58
2023-02-22T07:35:41.173Z,61.63
2023-02-22T07:38:10.522Z,62.00
2023-02-22T07:40:39.132Z,67.38
2023-02-22T07:43:15.085Z,59.42
2023-02-22T07:45:42.914Z,50.63
2023-02-22T07:48:17.755Z,61.85
2023-02-22T07:51:04.769Z,65.22
2023-02-22T07:53:33.701Z,69.63
2023-02-22T07:56:02.757Z,61.13
2023-02-22T07:58:31.263Z,56.13
2023-02-22T08:00:59.059Z,56.58
2023-02-22T08:03:27.238Z,52.10
2023-02-22T08:05:57.752Z,51.95
2023-02-22T08:08:25.062Z,48.08
2023-02-22T08:10:52.651Z,48.72
2023-02-22T08:13:22.331Z,48.17
2023-02-22T08:15:53.669Z,46.42
2023-02-22T08:18:21.974Z,53.67
2023-02-22T08:20:52.196Z,47.65
2023-02-22T08:23:22.625Z,56.03
2023-02-22T08:25:49.802Z,45.30
2023-02-22T08:28:20.409Z,49.22
2023-02-22T08:30:47.745Z,48.20
2023-02-22T08:33:19.562Z,49.47
2023-02-22T08:35:54.854Z,46.65
2023-02-22T08:38:27.098Z,46.05
2023-02-22T08:40:54.703Z,49.75
2023-02-22T08:43:22.977Z,50.45
2023-02-22T08:45:52.032Z,48.60
2023-02-22T08:48:20.503Z,42.88
2023-02-22T08:50:47.950Z,46.35
2023-02-22T08:53:16.388Z,42.38
2023-02-22T08:55:44.145Z,46.30
2023-02-22T08:58:12.199Z,44.22
2023-02-22T09:00:40.858Z,45.25
2023-02-22T09:03:13.267Z,43.05
2023-02-22T09:05:42.019Z,45.67
2023-02-22T09:08:09.602Z,41.30
2023-02-22T09:10:36.978Z,47.00
2023-02-22T09:13:04.643Z,37.08
2023-02-22T09:15:32.878Z,40.05
2023-02-22T09:18:00.619Z,40.33
2023-02-22T09:20:28.910Z,38.35
2023-02-22T09:22:56.919Z,41.80
2023-02-22T09:25:27.452Z,42.33
2023-02-22T09:27:55.788Z,44.97
2023-02-22T09:30:33.386Z,42.25
2023-02-22T09:33:13.013Z,38.00
2023-02-22T09:35:46.529Z,42.40
2023-02-22T09:38:26.190Z,42.63
2023-02-22T09:40:55.838Z,42.53
2023-02-22T09:43:45.301Z,36.08
2023-02-22T09:46:30.804Z,42.90
2023-02-22T09:49:15.558Z,36.45
2023-02-22T09:54:46.383Z,32.58
2023-02-22T09:57:32.741Z,34.92
2023-02-22T10:00:14.925Z,36.05
2023-02-22T10:02:54.387Z,30.10
2023-02-22T10:05:28.090Z,24.45
2023-02-22T10:08:06.039Z,34.78
2023-02-22T10:10:36.890Z,31.05
2023-02-22T10:13:23.120Z,23.63
2023-02-22T10:16:00.830Z,24.42
2023-02-22T10:18:49.173Z,32.42
2023-02-22T10:21:39.734Z,28.85
2023-02-22T10:24:19.005Z,26.23
2023-02-22T10:26:47.275Z,28.20
2023-02-22T10:29:17.197Z,27.33
2023-02-22T10:31:52.457Z,26.70
2023-02-22T10:34:28.476Z,20.88
2023-02-22T10:37:41.944Z,25.15
2023-02-22T10:40:23.088Z,22.88
2023-02-22T10:42:50.621Z,19.83
2023-02-22T10:45:37.761Z,20.58
2023-02-22T10:48:13.843Z,26.80
2023-02-22T10:50:43.912Z,20.20
2023-02-22T10:53:11.918Z,22.48
2023-02-22T10:56:17.150Z,26.65
2023-02-22T10:58:49.219Z,22.73
2023-02-22T11:01:31.400Z,24.00
2023-02-22T11:04:16.460Z,25.25
2023-02-22T11:06:49.291Z,23.80
2023-02-22T11:09:18.916Z,30.00
2023-02-22T11:11:48.471Z,22.88
2023-02-22T11:14:35.909Z,30.30
2023-02-22T11:17:08.516Z,23.08
2023-02-22T11:19:38.429Z,20.77
2023-02-22T11:22:21.817Z,28.23
2023-02-22T11:24:59.314Z,24.38
2023-02-22T11:27:47.091Z,16.25
2023-02-22T11:30:22.112Z,15.32
2023-02-22T11:33:10.656Z,18.05
2023-02-22T11:35:55.339Z,18.02
2023-02-22T11:38:32.929Z,20.58
2023-02-22T11:41:26.146Z,15.73
2023-02-22T11:43:58.901Z,18.60
2023-02-22T11:46:45.542Z,16.10
2023-02-22T11:49:17.425Z,17.65
2023-02-22T11:52:08.662Z,14.50
2023-02-22T11:54:39.103Z,13.52
2023-02-22T11:57:25.699Z,12.93
2023-02-22T12:00:27.904Z,13.98
2023-02-22T12:03:39.295Z,15.38
2023-02-22T12:06:15.831Z,14.73
2023-02-22T12:08:57.937Z,15.63
2023-02-22T12:11:38.092Z,13.77
2023-02-22T12:14:34.280Z,14.65
2023-02-22T12:17:20.584Z,13.07
2023-02-22T12:19:52.321Z,14.75
2023-02-22T12:22:26.918Z,15.02
2023-02-22T12:25:15.896Z,18.10
2023-02-22T12:27:59.245Z,14.82
2023-02-22T12:30:40.498Z,13.38
2023-02-22T12:33:15.885Z,16.08
2023-02-22T12:35:51.370Z,13.95
2023-02-22T12:38:42.224Z,14.05
2023-02-22T12:41:19.279Z,16.60
2023-02-22T12:43:52.722Z,17.73
2023-02-22T12:46:43.720Z,17.50
2023-02-22T12:49:21.034Z,13.27
2023-02-22T12:52:20.593Z,15.55
2023-02-22T12:54:56.261Z,15.50
2023-02-22T12:57:49.052Z,17.33
2023-02-22T13:00:35.660Z,12.45
2023-02-22T13:03:15.497Z,14.15
2023-02-22T13:05:45.090Z,15.23
2023-02-22T13:08:13.503Z,15.60
2023-02-22T13:11:08.867Z,16.15
2023-02-22T13:13:45.173Z,12.23
2023-02-22T13:16:41.398Z,13.63
2023-02-22T13:19:34.914Z,14.77
2023-02-22T13:22:46.824Z,13.18
2023-02-22T13:25:24.241Z,9.25
2023-02-22T13:28:00.110Z,12.70
2023-02-22T13:30:42.197Z,5.80
2023-02-22T13:33:29.396Z,8.68
2023-02-22T13:36:27.041Z,11.82
2023-02-22T13:38:54.197Z,7.93
2023-02-22T13:41:38.754Z,7.00
2023-02-22T13:44:27.176Z,7.28
2023-02-22T13:47:29.789Z,9.55
2023-02-22T13:49:57.091Z,7.18
2023-02-22T13:52:28.933Z,9.52
2023-02-22T13:55:11.216Z,7.95
2023-02-22T13:57:41.765Z,5.97
2023-02-22T14:00:15.060Z,5.80
2023-02-22T14:03:13.248Z,9.90
2023-02-22T14:05:44.866Z,7.40
2023-02-22T14:08:17.787Z,9.00
2023-02-22T14:10:46.830Z,8.27
2023-02-22T14:13:16.193Z,7.93
2023-02-22T14:16:02.372Z,6.85
2023-02-22T14:18:31.345Z,6.35
2023-02-22T14:21:10.504Z,8.60
2023-02-22T14:23:46.374Z,7.85
2023-02-22T14:26:16.820Z,6.50
2023-02-22T14:29:00.812Z,9.18
2023-02-22T14:32:04.947Z,9.15
2023-02-22T14:34:49.652Z,12.75
2023-02-22T14:37:40.898Z,8.90
2023-02-22T14:40:18.534Z,9.90
2023-02-22T14:42:48.333Z,11.88
2023-02-22T14:45:30.055Z,11.60
2023-02-22T14:48:20.966Z,11.38
2023-02-22T14:50:53.503Z,12.73
2023-02-22T14:53:36.945Z,11.63
2023-02-22T14:56:30.314Z,12.30
2023-02-22T14:59:19.060Z,11.75
2023-02-22T15:02:01.611Z,15.20
2023-02-22T15:04:35.158Z,10.00
2023-02-22T15:07:29.085Z,11.90
2023-02-22T15:10:21.459Z,14.27
2023-02-22T15:13:10.806Z,13.07
2023-02-22T15:15:46.970Z,10.90
2023-02-22T15:18:39.914Z,12.77
2023-02-22T15:21:13.458Z,14.38
2023-02-22T15:23:57.073Z,12.82
2023-02-22T15:26:42.469Z,11.93
2023-02-22T15:29:23.143Z,11.93
2023-02-22T15:31:51.488Z,10.10
2023-02-22T15:34:29.172Z,8.45
2023-02-22T15:37:06.575Z,11.27
2023-02-22T15:39:43.761Z,11.98
2023-02-22T15:42:28.335Z,9.15
2023-02-22T15:45:03.497Z,11.32
2023-02-22T15:47:34.505Z,10.45
2023-02-22T15:50:21.334Z,10.90
2023-02-22T15:53:00.053Z,7.07
2023-02-22T15:55:33.723Z,11.38
2023-02-22T15:58:12.660Z,12.68
2023-02-22T16:00:43.257Z,10.07
2023-02-22T16:03:15.073Z,13.32
2023-02-22T16:05:49.944Z,9.95
2023-02-22T16:08:25.795Z,9.00
2023-02-22T16:11:32.833Z,10.88
2023-02-22T16:14:04.947Z,11.82
2023-02-22T16:16:36.515Z,10.57
2023-02-22T16:19:25.886Z,10.25
2023-02-22T16:21:56.317Z,13.25
2023-02-22T16:24:29.418Z,13.10
2023-02-22T16:27:16.943Z,12.60
2023-02-22T16:29:45.471Z,14.27
2023-02-22T16:32:13.994Z,19.52
2023-02-22T16:34:41.459Z,17.85
2023-02-22T16:37:22.222Z,20.05
2023-02-22T16:39:53.347Z,13.43
2023-02-22T16:42:24.213Z,19.05
2023-02-22T16:44:55.113Z,15.60
2023-02-22T16:47:22.378Z,15.90
2023-02-22T16:49:57.219Z,16.25
2023-02-22T16:52:24.621Z,25.70
2023-02-22T16:54:52.621Z,31.23
2023-02-22T16:57:22.620Z,16.08
2023-02-22T16:59:52.756Z,18.17
2023-02-22T17:02:22.037Z,16.67
2023-02-22T17:04:52.308Z,14.70
2023-02-22T17:07:29.934Z,15.00
2023-02-22T17:10:00.995Z,16.30
2023-02-22T17:12:30.445Z,12.35
2023-02-22T17:15:00.156Z,10.88
2023-02-22T17:17:27.494Z,18.15
2023-02-22T17:19:55.181Z,15.73
2023-02-22T17:22:36.435Z,17.85
2023-02-22T17:25:22.813Z,18.55
2023-02-22T17:27:50.604Z,20.48
2023-02-22T17:30:44.299Z,15.95
2023-02-22T17:36:17.367Z,24.92
2023-02-22T17:41:31.079Z,17.27
2023-02-22T17:47:37.601Z,16.08
2023-02-22T17:50:13.259Z,7.97
2023-02-22T17:53:06.764Z,16.33
2023-02-22T17:55:42.835Z,23.95
2023-02-22T17:58:18.209Z,25.45
2023-02-22T18:00:54.245Z,16.52
2023-02-22T18:03:36.363Z,14.98
2023-02-22T18:06:19.867Z,19.98
2023-02-22T18:09:18.562Z,19.42
2023-02-22T18:12:05.826Z,16.80
2023-02-22T18:14:43.296Z,14.43
2023-02-22T18:17:13.371Z,16.65
2023-02-22T18:19:42.146Z,17.90
2023-02-22T18:22:09.326Z,19.00
2023-02-22T18:24:36.474Z,18.83
2023-02-22T18:27:06.067Z,17.83
2023-02-22T18:29:33.378Z,14.70
2023-02-22T18:32:00.611Z,16.98
2023-02-22T18:34:28.219Z,20.58
2023-02-22T18:36:55.996Z,21.30
2023-02-22T18:39:23.125Z,20.25
2023-02-22T18:41:50.551Z,22.50
2023-02-22T18:44:18.208Z,20.30
2023-02-22T18:46:45.503Z,21.80
2023-02-22T18:49:14.009Z,25.38
2023-02-22T18:51:43.609Z,26.25
2023-02-22T18:54:13.266Z,24.40
2023-02-22T18:56:40.685Z,26.20
2023-02-22T18:59:12.205Z,25.90
2023-02-22T19:01:41.135Z,28.08
2023-02-22T19:04:12.737Z,25.15
2023-02-22T19:06:41.509Z,21.35
2023-02-22T19:09:09.140Z,21.90
2023-02-22T19:11:37.191Z,27.02
2023-02-22T19:14:05.412Z,26.88
2023-02-22T19:16:33.360Z,46.28
2023-02-22T19:19:01.044Z,93.45
2023-02-22T19:21:30.079Z,49.30
2023-02-22T19:24:03.277Z,32.28
2023-02-22T19:26:30.895Z,38.22
2023-02-22T19:29:02.971Z,56.95
2023-02-22T19:31:33.763Z,62.78
2023-02-22T19:34:09.180Z,49.88
2023-02-22T19:36:40.735Z,82.47
2023-02-22T19:39:08.704Z,67.47
2023-02-22T19:41:37.291Z,59.78
2023-02-22T19:44:04.913Z,56.63
2023-02-22T19:46:32.193Z,60.95
2023-02-22T19:49:00.743Z,73.70
2023-02-22T19:51:29.706Z,71.95
2023-02-22T19:54:02.666Z,56.22
2023-02-22T19:56:31.029Z,42.65
2023-02-22T19:59:02.216Z,34.40
2023-02-22T20:01:33.269Z,32.20
2023-02-22T20:04:11.734Z,32.90
2023-02-22T20:06:41.763Z,70.45
2023-02-22T20:09:13.747Z,51.78
2023-02-22T20:11:40.984Z,34.55
2023-02-22T20:14:08.180Z,40.63
2023-02-22T20:16:35.745Z,42.38
2023-02-22T20:19:03.506Z,34.67
2023-02-22T20:21:33.557Z,38.72
2023-02-22T20:24:07.728Z,30.35
2023-02-22T20:29:05.392Z,26.45
2023-02-22T20:31:32.966Z,29.67
2023-02-22T20:34:01.533Z,39.15
2023-02-22T20:36:30.394Z,42.72
2023-02-22T20:38:59.830Z,35.60
2023-02-22T20:41:35.720Z,36.17
2023-02-22T20:44:06.984Z,45.03
2023-02-22T20:46:37.730Z,39.58
2023-02-22T20:49:07.497Z,62.60
2023-02-22T20:51:35.489Z,67.05
2023-02-22T20:54:03.100Z,67.03
2023-02-22T20:56:32.341Z,66.95
2023-02-22T20:59:02.465Z,70.00
2023-02-22T21:01:30.530Z,77.75
2023-02-22T21:04:07.040Z,60.45
2023-02-22T21:06:37.406Z,72.22
2023-02-22T21:09:09.053Z,48.95
2023-02-22T21:11:36.889Z,68.97
2023-02-22T21:14:04.215Z,75.82
2023-02-22T21:16:35.587Z,66.72
2023-02-22T21:19:06.061Z,80.03
2023-02-22T21:21:33.477Z,81.43
2023-02-22T21:24:04.120Z,85.82
2023-02-22T21:26:34.790Z,84.70
2023-02-22T21:29:04.974Z,91.70
2023-02-22T21:31:34.158Z,84.32
2023-02-22T21:34:02.286Z,89.30
2023-02-22T21:36:30.072Z,93.43
2023-02-22T21:39:00.038Z,107.63
2023-02-22T21:41:29.978Z,104.10
2023-02-22T21:43:58.958Z,99.20
2023-02-22T21:46:29.551Z,91.22
2023-02-22T21:48:58.705Z,90.50
2023-02-22T21:51:32.588Z,94.90
2023-02-22T21:54:06.227Z,80.60
2023-02-22T21:56:37.860Z,73.35
2023-02-22T21:59:11.698Z,75.75
2023-02-22T22:01:47.658Z,80.22
2023-02-22T22:04:20.579Z,76.93
2023-02-22T22:06:50.991Z,90.65
2023-02-22T22:09:19.983Z,90.65
2023-02-22T22:11:49.811Z,93.68
2023-02-22T22:14:19.060Z,92.55
2023-02-22T22:16:48.185Z,102.10
2023-02-22T22:19:15.668Z,106.15
2023-02-22T22:21:43.043Z,101.95
2023-02-22T22:24:11.082Z,91.25
2023-02-22T22:26:39.548Z,83.15
2023-02-22T22:29:10.508Z,100.93
2023-02-22T22:31:38.042Z,78.65
2023-02-22T22:34:06.120Z,60.88
2023-02-22T22:36:34.517Z,65.10
2023-02-22T22:39:02.230Z,66.47
2023-02-22T22:41:29.533Z,54.35
2023-02-22T22:43:57.325Z,66.07
2023-02-22T22:46:24.700Z,60.80
2023-02-22T22:48:52.030Z,62.13
2023-02-22T22:51:21.060Z,78.95
2023-02-22T22:53:50.082Z,58.70
2023-02-22T22:56:21.228Z,74.15
2023-02-22T22:58:56.540Z,91.05
2023-02-22T23:01:27.620Z,89.22
2023-02-22T23:04:02.135Z,105.35
2023-02-22T23:06:32.924Z,116.38
2023-02-22T23:09:12.654Z,110.38
2023-02-22T23:11:45.738Z,96.57
2023-02-22T23:14:19.706Z,91.72
2023-02-22T23:16:48.249Z,93.80
2023-02-22T23:19:15.968Z,96.35
2023-02-22T23:21:44.051Z,99.55
2023-02-22T23:24:15.412Z,96.18
2023-02-22T23:26:50.867Z,92.35
2023-02-22T23:29:20.737Z,84.72
2023-02-22T23:31:49.490Z,76.72
2023-02-22T23:34:21.268Z,80.90
2023-02-22T23:36:49.480Z,88.47
2023-02-22T23:39:20.638Z,72.82
2023-02-22T23:41:52.541Z,65.00
2023-02-22T23:44:21.597Z,64.88
2023-02-22T23:46:49.851Z,83.68
2023-02-22T23:49:20.226Z,66.72
2023-02-22T23:51:48.222Z,59.05
2023-02-22T23:54:21.783Z,68.43
2023-02-22T23:56:58.534Z,65.63
2023-02-22T23:59:27.003Z,79.47
